createdAt,value
2023-04-27T00:04:01.153Z,0
2023-04-27T00:19:24.464Z,0
2023-04-27T00:34:47.805Z,0
2023-04-27T00:50:11.112Z,0
2023-04-27T01:20:56.760Z,0
2023-04-27T01:36:20.092Z,0
2023-04-27T01:51:43.398Z,0
2023-04-27T02:07:06.722Z,0
2023-04-27T02:22:30.024Z,0
2023-04-27T02:37:53.357Z,0
2023-04-27T02:53:16.665Z,0
2023-04-27T03:08:39.981Z,0
2023-04-27T03:24:03.251Z,2
2023-04-27T03:39:26.527Z,12
2023-04-27T03:54:49.816Z,83
2023-04-27T04:10:13.082Z,211
2023-04-27T04:25:35.378Z,287
2023-04-27T04:40:58.639Z,429
2023-04-27T04:56:21.909Z,622
2023-04-27T05:11:45.183Z,895
2023-04-27T05:27:08.465Z,1037
2023-04-27T05:42:31.715Z,1201
2023-04-27T05:57:54.991Z,1378
2023-04-27T06:13:18.279Z,1633
2023-04-27T06:28:41.545Z,1813
2023-04-27T06:44:04.818Z,1584
2023-04-27T06:59:28.079Z,2033
2023-04-27T07:14:51.349Z,2481
2023-04-27T07:16:14.759Z,2567
2023-04-27T07:17:38.276Z,3072
2023-04-27T07:19:01.696Z,2530
2023-04-27T07:20:25.108Z,2626
2023-04-27T07:21:48.510Z,2597
2023-04-27T07:23:11.924Z,2540
2023-04-27T07:24:35.335Z,2549
2023-04-27T07:25:58.740Z,2525
2023-04-27T07:27:22.154Z,2470
2023-04-27T07:28:45.557Z,2432
2023-04-27T07:30:08.960Z,2485
2023-04-27T07:31:32.378Z,2556
2023-04-27T07:32:55.787Z,2577
2023-04-27T07:34:19.206Z,3072
2023-04-27T07:35:41.616Z,2782
2023-04-27T07:37:05.022Z,3072
2023-04-27T07:38:28.431Z,2814
2023-04-27T07:39:51.843Z,2689
2023-04-27T07:41:15.262Z,2674
2023-04-27T07:42:38.665Z,2748
2023-04-27T07:44:02.078Z,2811
2023-04-27T07:45:25.495Z,2865
2023-04-27T07:46:48.888Z,2920
2023-04-27T07:48:12.298Z,2994
2023-04-27T07:49:35.711Z,2957
2023-04-27T07:50:59.117Z,2989
2023-04-27T07:52:22.526Z,3012
2023-04-27T07:53:44.959Z,2990
2023-04-27T07:55:08.362Z,3024
2023-04-27T07:56:31.770Z,2994
2023-04-27T07:57:55.195Z,2982
2023-04-27T07:59:18.603Z,3007
2023-04-27T08:00:42.013Z,2992
2023-04-27T08:02:04.435Z,2968
2023-04-27T08:03:27.841Z,2892
2023-04-27T08:04:51.248Z,2861
2023-04-27T08:06:14.655Z,2862
2023-04-27T08:09:01.479Z,2881
2023-04-27T08:10:24.884Z,2996
2023-04-27T08:11:48.300Z,2985
2023-04-27T08:13:11.707Z,3115
2023-04-27T08:14:35.111Z,3202
2023-04-27T08:15:58.542Z,3100
2023-04-27T08:17:21.953Z,3041
2023-04-27T08:18:45.350Z,2996
2023-04-27T08:20:07.775Z,3080
2023-04-27T08:21:31.191Z,3024
2023-04-27T08:22:54.604Z,2999
2023-04-27T08:24:18.020Z,3207
2023-04-27T08:25:41.435Z,3228
2023-04-27T08:27:04.829Z,3276
2023-04-27T08:28:28.244Z,3405
2023-04-27T08:29:51.645Z,3247
2023-04-27T08:31:15.055Z,3160
2023-04-27T08:32:38.464Z,3127
2023-04-27T08:34:01.876Z,3134
2023-04-27T08:35:25.280Z,3207
2023-04-27T08:36:48.691Z,3127
2023-04-27T08:38:11.116Z,3149
2023-04-27T08:39:34.538Z,3224
2023-04-27T08:40:57.934Z,3072
2023-04-27T08:42:21.336Z,3104
2023-04-27T08:43:44.750Z,2936
2023-04-27T08:45:08.162Z,2945
2023-04-27T08:46:31.573Z,2945
2023-04-27T08:47:54.989Z,2901
2023-04-27T08:49:18.388Z,2830
2023-04-27T08:50:41.813Z,2869
2023-04-27T08:52:05.206Z,2646
2023-04-27T08:53:28.628Z,3072
2023-04-27T08:54:52.036Z,2820
2023-04-27T08:56:14.452Z,3072
2023-04-27T08:57:37.861Z,2972
2023-04-27T08:59:01.272Z,3015
2023-04-27T09:00:24.690Z,3022
2023-04-27T09:01:48.087Z,3244
2023-04-27T09:03:11.492Z,3304
2023-04-27T09:04:34.905Z,3380
2023-04-27T09:05:58.322Z,3072
2023-04-27T09:07:21.707Z,3476
2023-04-27T09:08:45.123Z,3318
2023-04-27T09:10:08.544Z,3336
2023-04-27T09:11:31.941Z,3355
2023-04-27T09:12:55.345Z,3324
2023-04-27T09:14:17.779Z,2937
2023-04-27T09:15:41.173Z,2396
2023-04-27T09:17:04.587Z,2212
2023-04-27T09:18:28.007Z,3072
2023-04-27T09:19:51.402Z,2325
2023-04-27T09:21:14.822Z,3072
2023-04-27T09:22:38.214Z,2902
2023-04-27T09:24:01.632Z,3305
2023-04-27T09:25:25.032Z,3824
2023-04-27T09:26:48.452Z,3508
2023-04-27T09:28:11.867Z,3705
2023-04-27T09:29:35.259Z,3896
2023-04-27T09:30:58.676Z,4173
2023-04-27T09:32:21.093Z,4399
2023-04-27T09:33:44.501Z,4643
2023-04-27T09:35:07.926Z,4624
2023-04-27T09:36:31.315Z,4118
2023-04-27T09:37:54.733Z,4384
2023-04-27T09:39:18.139Z,4303
2023-04-27T09:40:41.563Z,4260
2023-04-27T09:42:04.955Z,4403
2023-04-27T09:43:28.376Z,4107
2023-04-27T09:44:51.778Z,3742
2023-04-27T09:46:15.196Z,2669
2023-04-27T09:47:38.596Z,2254
2023-04-27T09:49:02.006Z,2281
2023-04-27T09:50:24.437Z,2306
2023-04-27T09:51:47.839Z,2307
2023-04-27T09:53:11.235Z,2302
2023-04-27T09:54:34.651Z,2497
2023-04-27T09:55:58.054Z,2703
2023-04-27T09:57:21.473Z,3213
2023-04-27T09:58:44.872Z,3687
2023-04-27T10:00:08.272Z,3933
2023-04-27T10:01:31.691Z,4282
2023-04-27T10:02:55.093Z,4472
2023-04-27T10:05:41.909Z,4924
2023-04-27T10:07:05.316Z,5213
2023-04-27T10:08:27.757Z,5516
2023-04-27T10:09:51.158Z,3072
2023-04-27T10:11:14.575Z,5415
2023-04-27T10:12:37.976Z,4678
2023-04-27T10:14:01.388Z,3723
2023-04-27T10:15:24.789Z,3388
2023-04-27T10:16:48.191Z,3302
2023-04-27T10:18:11.607Z,3160
2023-04-27T10:19:35.022Z,2999
2023-04-27T10:20:58.425Z,2958
2023-04-27T10:22:21.824Z,2916
2023-04-27T10:23:45.250Z,2738
2023-04-27T10:25:08.651Z,2342
2023-04-27T10:26:31.083Z,2061
2023-04-27T10:27:54.483Z,3072
2023-04-27T10:29:17.893Z,1835
2023-04-27T10:30:41.295Z,1830
2023-04-27T10:32:04.701Z,1873
2023-04-27T10:33:28.105Z,2016
2023-04-27T10:34:51.509Z,2213
2023-04-27T10:36:14.924Z,2502
2023-04-27T10:37:38.333Z,2812
2023-04-27T10:39:01.749Z,3072
2023-04-27T10:40:25.165Z,3346
2023-04-27T10:41:48.565Z,3562
2023-04-27T10:43:11.971Z,3778
2023-04-27T10:44:34.397Z,3959
2023-04-27T10:45:57.808Z,4062
2023-04-27T10:47:21.209Z,4359
2023-04-27T10:48:44.617Z,4859
2023-04-27T10:50:08.019Z,9189
2023-04-27T10:51:31.439Z,12231
2023-04-27T10:52:54.852Z,6890
2023-04-27T10:54:18.256Z,4278
2023-04-27T10:55:41.669Z,4520
2023-04-27T10:57:05.073Z,7522
2023-04-27T10:58:28.474Z,3072
2023-04-27T10:59:51.890Z,3749
2023-04-27T11:01:15.298Z,3766
2023-04-27T11:02:37.701Z,3630
2023-04-27T11:04:01.122Z,3133
2023-04-27T11:05:24.523Z,2881
2023-04-27T11:06:47.944Z,2582
2023-04-27T11:08:11.350Z,2320
2023-04-27T11:09:34.760Z,2137
2023-04-27T11:10:58.152Z,2041
2023-04-27T11:12:21.562Z,1967
2023-04-27T11:13:44.968Z,1923
2023-04-27T11:15:08.393Z,1913
2023-04-27T11:16:31.779Z,1969
2023-04-27T11:17:55.195Z,1934
2023-04-27T11:19:18.604Z,2105
2023-04-27T11:20:41.025Z,2193
2023-04-27T11:22:04.433Z,2403
2023-04-27T11:23:27.849Z,2684
2023-04-27T11:24:51.256Z,3024
2023-04-27T11:26:14.651Z,3369
2023-04-27T11:27:38.068Z,3793
2023-04-27T11:29:01.482Z,4053
2023-04-27T11:30:24.886Z,4458
2023-04-27T11:31:48.304Z,4450
2023-04-27T11:33:11.720Z,4109
2023-04-27T11:34:35.130Z,3697
2023-04-27T11:35:58.537Z,3336
2023-04-27T11:37:21.937Z,3142
2023-04-27T11:38:44.362Z,2982
2023-04-27T11:40:07.775Z,2959
2023-04-27T11:41:31.182Z,3099
2023-04-27T11:42:54.579Z,3352
2023-04-27T11:44:17.989Z,3697
2023-04-27T11:45:41.390Z,3559
2023-04-27T11:47:04.802Z,3892
2023-04-27T11:48:28.208Z,4372
2023-04-27T11:49:51.622Z,3072
2023-04-27T11:51:15.036Z,5339
2023-04-27T11:52:38.435Z,6141
2023-04-27T11:54:01.860Z,14618
2023-04-27T11:55:25.265Z,19963
2023-04-27T11:56:47.693Z,17797
2023-04-27T11:58:11.097Z,3072
2023-04-27T11:59:34.497Z,24282
2023-04-27T12:00:57.902Z,3072
2023-04-27T12:02:21.312Z,22857
2023-04-27T12:03:44.716Z,23133
2023-04-27T12:05:08.135Z,18315
2023-04-27T12:06:31.534Z,3072
2023-04-27T12:07:54.937Z,14860
2023-04-27T12:09:18.354Z,16307
2023-04-27T12:10:41.759Z,21067
2023-04-27T12:12:05.169Z,25968
2023-04-27T12:13:28.571Z,28348
2023-04-27T12:14:50.992Z,3072
2023-04-27T12:16:14.396Z,25544
2023-04-27T12:17:37.811Z,3072
2023-04-27T12:19:01.227Z,22037
2023-04-27T12:20:24.628Z,15496
2023-04-27T12:21:48.034Z,6859
2023-04-27T12:23:11.443Z,6148
2023-04-27T12:24:34.867Z,5651
2023-04-27T12:25:58.266Z,6348
2023-04-27T12:27:21.684Z,6496
2023-04-27T12:28:45.088Z,5315
2023-04-27T12:30:08.504Z,4864
2023-04-27T12:31:31.899Z,5152
2023-04-27T12:32:54.319Z,5457
2023-04-27T12:34:17.730Z,6648
2023-04-27T12:35:41.149Z,8551
2023-04-27T12:37:04.552Z,7458
2023-04-27T12:38:27.954Z,8268
2023-04-27T12:41:14.782Z,7046
2023-04-27T12:42:37.201Z,7128
2023-04-27T12:44:00.622Z,7810
2023-04-27T12:45:24.028Z,21231
2023-04-27T12:46:47.431Z,3072
2023-04-27T12:48:10.841Z,6250
2023-04-27T12:49:34.241Z,14803
2023-04-27T12:50:57.666Z,23072
2023-04-27T12:52:21.067Z,19612
2023-04-27T12:53:44.477Z,9414
2023-04-27T12:55:07.880Z,9154
2023-04-27T12:56:31.294Z,30316
2023-04-27T12:57:54.695Z,9265
2023-04-27T12:59:18.110Z,6997
2023-04-27T13:00:40.547Z,74854
2023-04-27T13:02:03.946Z,3072
2023-04-27T13:03:27.359Z,4700
2023-04-27T13:04:50.776Z,4873
2023-04-27T13:06:14.172Z,4966
2023-04-27T13:07:37.581Z,4716
2023-04-27T13:09:00.988Z,5134
2023-04-27T13:10:24.400Z,6338
2023-04-27T13:11:47.820Z,24137
2023-04-27T13:13:11.226Z,9003
2023-04-27T13:14:34.628Z,8690
2023-04-27T13:15:58.038Z,10865
2023-04-27T13:17:21.446Z,18994
2023-04-27T13:18:43.871Z,20411
2023-04-27T13:20:07.289Z,17807
2023-04-27T13:21:30.686Z,75963
2023-04-27T13:22:54.111Z,16752
2023-04-27T13:24:17.515Z,75252
2023-04-27T13:25:40.921Z,28227
2023-04-27T13:27:04.327Z,28926
2023-04-27T13:28:27.725Z,77761
2023-04-27T13:29:51.133Z,76865
2023-04-27T13:31:14.541Z,26801
2023-04-27T13:32:37.957Z,17978
2023-04-27T13:34:01.364Z,17841
2023-04-27T13:35:24.783Z,20546
2023-04-27T13:36:47.193Z,19745
2023-04-27T13:38:10.607Z,3072
2023-04-27T13:39:34.020Z,27253
2023-04-27T13:40:57.431Z,30399
2023-04-27T13:42:20.829Z,25810
2023-04-27T13:43:44.233Z,26862
2023-04-27T13:45:07.649Z,28447
2023-04-27T13:46:31.059Z,10054
2023-04-27T13:47:54.470Z,20193
2023-04-27T13:49:17.874Z,20481
2023-04-27T13:50:41.294Z,74862
2023-04-27T13:52:04.708Z,78717
2023-04-27T13:53:28.103Z,77886
2023-04-27T13:54:50.531Z,76692
2023-04-27T13:56:13.939Z,25473
2023-04-27T13:57:37.346Z,23316
2023-04-27T13:59:00.767Z,21189
2023-04-27T14:00:24.167Z,17343
2023-04-27T14:01:47.567Z,16505
2023-04-27T14:03:10.979Z,13913
2023-04-27T14:04:34.399Z,13779
2023-04-27T14:05:57.802Z,7818
2023-04-27T14:07:21.208Z,5994
2023-04-27T14:08:44.608Z,6311
2023-04-27T14:10:08.022Z,3072
2023-04-27T14:11:31.434Z,7566
2023-04-27T14:12:53.851Z,78252
2023-04-27T14:14:17.258Z,18467
2023-04-27T14:15:40.683Z,20660
2023-04-27T14:18:27.496Z,18866
2023-04-27T14:19:50.898Z,26125
2023-04-27T14:21:14.297Z,8233
2023-04-27T14:22:37.714Z,8789
2023-04-27T14:24:01.125Z,17673
2023-04-27T14:25:24.525Z,17863
2023-04-27T14:26:47.932Z,14940
2023-04-27T14:28:11.343Z,7872
2023-04-27T14:29:34.749Z,7249
2023-04-27T14:30:57.189Z,17060
2023-04-27T14:32:20.598Z,7177
2023-04-27T14:33:43.999Z,7374
2023-04-27T14:35:07.407Z,22095
2023-04-27T14:36:30.820Z,26483
2023-04-27T14:37:54.220Z,28148
2023-04-27T14:39:17.630Z,27153
2023-04-27T14:40:41.031Z,24068
2023-04-27T14:42:04.453Z,25742
2023-04-27T14:43:27.856Z,6779
2023-04-27T14:44:51.261Z,13135
2023-04-27T14:46:14.668Z,16929
2023-04-27T14:47:38.088Z,14933
2023-04-27T14:49:00.496Z,3072
2023-04-27T14:50:23.911Z,13719
2023-04-27T14:51:47.318Z,17786
2023-04-27T14:53:10.737Z,16953
2023-04-27T14:54:34.132Z,6501
2023-04-27T14:55:57.548Z,20944
2023-04-27T14:58:44.365Z,11777
2023-04-27T15:00:07.769Z,8126
2023-04-27T15:01:31.173Z,7069
2023-04-27T15:02:54.593Z,10926
2023-04-27T15:04:17.994Z,19089
2023-04-27T15:05:41.411Z,20550
2023-04-27T15:07:03.822Z,17520
2023-04-27T15:08:27.239Z,17876
2023-04-27T15:09:50.645Z,12455
2023-04-27T15:11:14.053Z,11639
2023-04-27T15:12:37.462Z,15715
2023-04-27T15:14:00.869Z,15280
2023-04-27T15:15:24.281Z,13186
2023-04-27T15:16:47.681Z,3072
2023-04-27T15:18:11.104Z,7387
2023-04-27T15:19:34.505Z,3072
2023-04-27T15:20:57.921Z,8477
2023-04-27T15:22:21.322Z,9872
2023-04-27T15:23:44.738Z,5786
2023-04-27T15:25:07.167Z,6115
2023-04-27T15:26:30.568Z,17921
2023-04-27T15:27:53.990Z,17161
2023-04-27T15:29:17.395Z,17644
2023-04-27T15:30:40.809Z,4893
2023-04-27T15:32:04.208Z,4475
2023-04-27T15:33:27.614Z,4604
2023-04-27T15:34:51.028Z,8217
2023-04-27T15:36:14.448Z,7120
2023-04-27T15:37:37.836Z,5555
2023-04-27T15:39:01.250Z,6682
2023-04-27T15:40:24.660Z,4825
2023-04-27T15:41:48.074Z,6883
2023-04-27T15:43:10.504Z,4398
2023-04-27T15:44:33.896Z,4165
2023-04-27T15:45:57.305Z,4119
2023-04-27T15:47:20.730Z,4153
2023-04-27T15:48:44.120Z,3072
2023-04-27T15:50:07.545Z,4118
2023-04-27T15:51:30.941Z,3866
2023-04-27T15:52:54.361Z,3660
2023-04-27T15:54:17.768Z,3690
2023-04-27T15:55:41.171Z,3604
2023-04-27T15:57:04.574Z,3666
2023-04-27T15:58:27.975Z,3749
2023-04-27T15:59:51.384Z,3738
2023-04-27T16:01:13.824Z,3524
2023-04-27T16:02:37.215Z,3313
2023-04-27T16:04:00.639Z,3193
2023-04-27T16:05:24.034Z,3149
2023-04-27T16:06:47.452Z,3252
2023-04-27T16:08:10.853Z,3072
2023-04-27T16:09:34.258Z,3228
2023-04-27T16:10:57.671Z,3202
2023-04-27T16:12:21.093Z,3195
2023-04-27T16:13:44.494Z,3130
2023-04-27T16:15:07.890Z,3099
2023-04-27T16:16:31.306Z,3015
2023-04-27T16:17:54.719Z,3014
2023-04-27T16:19:17.137Z,2873
2023-04-27T16:22:03.956Z,2790
2023-04-27T16:23:27.358Z,2747
2023-04-27T16:24:50.779Z,2791
2023-04-27T16:26:14.170Z,2739
2023-04-27T16:27:37.597Z,2633
2023-04-27T16:29:01.006Z,2517
2023-04-27T16:30:24.400Z,2455
2023-04-27T16:31:47.810Z,2415
2023-04-27T16:33:11.221Z,3072
2023-04-27T16:34:34.637Z,2261
2023-04-27T16:35:58.042Z,2248
2023-04-27T16:37:20.469Z,2211
2023-04-27T16:38:43.886Z,2191
2023-04-27T16:40:07.287Z,2179
2023-04-27T16:41:30.691Z,2169
2023-04-27T16:42:54.098Z,2160
2023-04-27T16:44:17.519Z,2161
2023-04-27T16:45:40.922Z,2112
2023-04-27T16:48:27.740Z,1944
2023-04-27T16:49:51.156Z,1918
2023-04-27T16:51:14.558Z,1845
2023-04-27T16:52:37.961Z,1762
2023-04-27T16:54:01.362Z,1733
2023-04-27T16:55:23.806Z,1660
2023-04-27T16:56:47.215Z,1576
2023-04-27T16:58:10.622Z,1515
2023-04-27T16:59:34.043Z,3072
2023-04-27T17:00:57.451Z,1418
2023-04-27T17:02:20.858Z,1376
2023-04-27T17:03:44.264Z,1322
2023-04-27T17:05:07.664Z,1231
2023-04-27T17:06:31.085Z,1157
2023-04-27T17:07:54.480Z,1155
2023-04-27T17:09:17.903Z,1121
2023-04-27T17:10:41.316Z,1088
2023-04-27T17:12:04.719Z,1072
2023-04-27T17:13:27.140Z,1105
2023-04-27T17:14:50.550Z,1096
2023-04-27T17:16:13.958Z,1057
2023-04-27T17:17:37.366Z,1080
2023-04-27T17:19:00.766Z,1065
2023-04-27T17:20:24.179Z,1015
2023-04-27T17:21:46.626Z,953
2023-04-27T17:23:10.019Z,869
2023-04-27T17:24:33.426Z,769
2023-04-27T17:25:56.836Z,720
2023-04-27T17:27:20.247Z,664
2023-04-27T17:28:43.659Z,619
2023-04-27T17:30:07.059Z,585
2023-04-27T17:31:30.484Z,542
2023-04-27T17:32:53.884Z,3072
2023-04-27T17:34:17.280Z,483
2023-04-27T17:35:40.702Z,463
2023-04-27T17:37:04.107Z,455
2023-04-27T17:38:27.514Z,447
2023-04-27T17:39:49.939Z,446
2023-04-27T17:41:13.357Z,438
2023-04-27T17:42:36.756Z,438
2023-04-27T17:44:00.167Z,433
2023-04-27T17:45:23.578Z,422
2023-04-27T17:46:46.977Z,409
2023-04-27T17:48:10.391Z,396
2023-04-27T17:49:33.802Z,376
2023-04-27T17:50:57.215Z,372
2023-04-27T17:52:20.611Z,351
2023-04-27T17:53:44.024Z,346
2023-04-27T17:55:07.427Z,322
2023-04-27T17:56:30.834Z,296
2023-04-27T17:57:53.271Z,279
2023-04-27T17:59:16.678Z,262
2023-04-27T18:00:40.081Z,241
2023-04-27T18:02:03.477Z,228
2023-04-27T18:03:26.886Z,205
2023-04-27T18:04:50.298Z,193
2023-04-27T18:06:13.703Z,180
2023-04-27T18:07:37.128Z,168
2023-04-27T18:09:00.534Z,3072
2023-04-27T18:10:23.934Z,151
2023-04-27T18:11:47.348Z,137
2023-04-27T18:13:10.758Z,124
2023-04-27T18:14:34.156Z,114
2023-04-27T18:17:20.000Z,94
2023-04-27T18:18:43.405Z,87
2023-04-27T18:20:06.823Z,82
2023-04-27T18:21:30.232Z,68
2023-04-27T18:22:53.629Z,66
2023-04-27T18:24:17.044Z,58
2023-04-27T18:25:40.456Z,60
2023-04-27T18:27:03.864Z,48
2023-04-27T18:28:27.275Z,43
2023-04-27T18:29:50.682Z,38
2023-04-27T18:31:14.094Z,31
2023-04-27T18:32:37.503Z,21
2023-04-27T18:33:59.925Z,24
2023-04-27T18:35:23.319Z,19
2023-04-27T18:36:46.744Z,15
2023-04-27T18:38:10.134Z,17
2023-04-27T18:39:33.560Z,6
2023-04-27T18:40:56.963Z,11
2023-04-27T18:42:20.372Z,5
2023-04-27T18:43:43.777Z,8
2023-04-27T18:45:07.172Z,4
2023-04-27T18:46:30.600Z,5
2023-04-27T18:47:54.003Z,1
2023-04-27T18:49:17.415Z,2
2023-04-27T18:50:40.855Z,0
2023-04-27T18:52:03.274Z,2
2023-04-27T18:53:26.682Z,1
2023-04-27T18:54:50.106Z,1
2023-04-27T18:56:13.547Z,0
2023-04-27T18:57:36.993Z,0
2023-04-27T18:59:00.454Z,0
2023-04-27T19:00:23.896Z,0
2023-04-27T19:01:47.341Z,0
2023-04-27T19:03:10.804Z,0
2023-04-27T19:04:34.243Z,0
2023-04-27T19:05:57.700Z,0
2023-04-27T19:07:21.144Z,0
2023-04-27T19:08:44.607Z,0
2023-04-27T19:10:07.060Z,0
2023-04-27T19:11:30.519Z,0
2023-04-27T19:12:53.000Z,0
2023-04-27T19:14:17.419Z,0
2023-04-27T19:15:40.857Z,0
2023-04-27T19:17:04.305Z,0
2023-04-27T19:18:27.765Z,0
2023-04-27T19:19:51.202Z,0
2023-04-27T19:21:14.653Z,0
2023-04-27T19:22:38.107Z,0
2023-04-27T19:24:01.557Z,0
2023-04-27T19:25:25.011Z,0
2023-04-27T19:26:48.453Z,0
2023-04-27T19:28:10.932Z,0
2023-04-27T19:29:34.393Z,0
2023-04-27T19:30:57.861Z,0
2023-04-27T19:32:21.305Z,0
2023-04-27T19:33:44.746Z,0
2023-04-27T19:35:08.208Z,0
2023-04-27T19:36:31.660Z,0
2023-04-27T19:37:55.115Z,0
2023-04-27T19:39:18.559Z,0
2023-04-27T19:40:41.999Z,0
2023-04-27T19:42:05.459Z,0
2023-04-27T19:43:28.904Z,0
2023-04-27T19:44:52.345Z,0
2023-04-27T19:46:14.817Z,0
2023-04-27T19:47:38.263Z,0
2023-04-27T19:49:01.717Z,0
2023-04-27T19:50:25.169Z,0
2023-04-27T19:51:48.610Z,0
2023-04-27T19:53:12.078Z,0
2023-04-27T19:54:35.513Z,0
2023-04-27T19:55:58.969Z,0
2023-04-27T19:57:22.422Z,0
2023-04-27T19:58:45.873Z,0
2023-04-27T20:00:09.328Z,0
2023-04-27T20:01:32.766Z,0
2023-04-27T20:02:56.209Z,0
2023-04-27T20:04:18.682Z,0
2023-04-27T20:05:42.138Z,0
2023-04-27T20:07:05.592Z,0
2023-04-27T20:08:29.043Z,0
2023-04-27T20:09:52.477Z,0
2023-04-27T20:11:15.940Z,0
2023-04-27T20:12:39.390Z,0
2023-04-27T20:14:02.835Z,0
2023-04-27T20:15:26.299Z,0
2023-04-27T20:16:49.750Z,0
2023-04-27T20:18:13.186Z,0
2023-04-27T20:19:36.638Z,0
2023-04-27T20:21:00.088Z,0
2023-04-27T20:22:22.550Z,0
2023-04-27T20:23:46.010Z,0
2023-04-27T20:25:09.464Z,0
2023-04-27T20:26:32.908Z,0
2023-04-27T20:27:56.353Z,0
2023-04-27T20:29:19.815Z,0
2023-04-27T20:30:43.256Z,0
2023-04-27T20:32:06.710Z,0
2023-04-27T20:33:30.158Z,0
2023-04-27T20:34:53.591Z,0
2023-04-27T20:36:17.058Z,0
2023-04-27T20:37:40.507Z,0
2023-04-27T20:39:03.944Z,0
2023-04-27T20:40:26.421Z,0
2023-04-27T20:41:49.857Z,0
2023-04-27T20:43:13.309Z,0
2023-04-27T20:44:36.768Z,0
2023-04-27T20:46:00.217Z,0
2023-04-27T20:48:47.120Z,0
2023-04-27T20:50:10.569Z,0
2023-04-27T20:51:34.012Z,0
2023-04-27T20:52:57.464Z,0
2023-04-27T20:54:20.907Z,0
2023-04-27T20:55:44.368Z,0
2023-04-27T20:57:07.803Z,0
2023-04-27T20:58:30.276Z,0
2023-04-27T20:59:53.721Z,0
2023-04-27T21:01:17.179Z,0
2023-04-27T21:02:40.637Z,0
2023-04-27T21:04:04.084Z,0
2023-04-27T21:05:27.522Z,0
2023-04-27T21:06:50.972Z,0
2023-04-27T21:08:14.430Z,0
2023-04-27T21:09:37.873Z,0
2023-04-27T21:11:01.326Z,0
2023-04-27T21:12:24.776Z,0
2023-04-27T21:13:48.236Z,0
2023-04-27T21:15:11.678Z,0
2023-04-27T21:16:34.138Z,0
2023-04-27T21:17:57.600Z,0
2023-04-27T21:19:21.045Z,0
2023-04-27T21:20:44.498Z,0
2023-04-27T21:22:07.941Z,0
2023-04-27T21:37:31.246Z,0
2023-04-27T21:52:54.533Z,0
2023-04-27T22:08:17.837Z,0
2023-04-27T22:23:40.857Z,0
2023-04-27T22:39:04.155Z,0
2023-04-27T22:54:27.464Z,0
2023-04-27T23:09:50.755Z,0
2023-04-27T23:25:14.072Z,0
2023-04-27T23:40:36.389Z,0
2023-04-27T23:55:59.693Z,0
